Time;durP1;ratioP1;P1;durP2;ratioP2;P2;SDS_P1;SDS_P2;PMS_P1;PMS_P2;Temp;Humidity;BMP_temperature;BMP_pressure;BME280_temperature;BME280_humidity;BME280_pressure;Samples;Min_cycle;Max_cycle;Signal;HPM_P1;HPM_P2
2022/02/21 00:00:26;;;;;;;16.40;12.23;;;;;;;7.01;95.01;100178.16;5109262;28;20751;-69
2022/02/21 00:02:53;;;;;;;17.27;13.30;;;;;;;6.98;93.97;100157.06;5110697;27;20035;-68
2022/02/21 00:05:19;;;;;;;19.35;13.93;;;;;;;7.04;94.15;100170.75;5110606;28;20027;-68
2022/02/21 00:07:46;;;;;;;16.42;13.35;;;;;;;7.00;94.66;100157.81;5110342;28;20031;-69
2022/02/21 00:10:12;;;;;;;16.75;12.55;;;;;;;7.03;94.25;100162.03;5110779;28;20039;-69
2022/02/21 00:12:39;;;;;;;17.63;13.15;;;;;;;6.96;94.35;100154.50;5110439;28;20514;-68
2022/02/21 00:15:05;;;;;;;17.85;13.38;;;;;;;7.03;95.03;100162.03;5110599;28;20399;-69
2022/02/21 00:17:31;;;;;;;19.05;13.98;;;;;;;7.04;94.73;100153.94;5108016;28;20081;-69
2022/02/21 00:19:56;;;;;;;17.92;13.38;;;;;;;7.00;93.84;100152.47;5110095;28;20558;-69
2022/02/21 00:22:22;;;;;;;18.83;13.35;;;;;;;6.90;94.31;100132.78;5113187;28;20066;-68
2022/02/21 00:24:47;;;;;;;17.00;13.85;;;;;;;6.98;94.50;100152.56;5109624;28;20031;-68
2022/02/21 00:27:13;;;;;;;18.60;14.07;;;;;;;6.85;93.99;100135.81;5109172;28;20036;-69
2022/02/21 00:29:38;;;;;;;18.58;13.07;;;;;;;6.94;94.41;100158.25;5109405;28;20019;-69
2022/02/21 00:32:04;;;;;;;20.55;13.65;;;;;;;6.93;94.26;100161.88;5109304;28;20027;-70
2022/02/21 00:34:30;;;;;;;18.58;13.35;;;;;;;6.90;94.02;100159.44;5109219;28;20026;-69
2022/02/21 00:36:55;;;;;;;21.70;14.45;;;;;;;6.87;93.90;100167.69;5109466;28;20467;-68
2022/02/21 00:39:21;;;;;;;17.48;13.82;;;;;;;6.83;93.80;100164.38;5109164;28;20030;-68
2022/02/21 00:41:46;;;;;;;17.42;13.50;;;;;;;6.79;93.74;100151.41;5109368;28;20028;-76
2022/02/21 00:44:12;;;;;;;19.48;13.95;;;;;;;6.73;94.08;100133.19;5111536;28;20360;-77
2022/02/21 00:46:37;;;;;;;22.30;14.82;;;;;;;6.70;94.40;100134.28;5111701;28;20043;-76
2022/02/21 00:49:05;;;;;;;21.35;14.80;;;;;;;6.65;94.26;100125.78;5111611;28;20016;-77
2022/02/21 00:51:30;;;;;;;22.65;14.95;;;;;;;6.66;93.54;100130.16;5112375;28;20036;-77
2022/02/21 00:53:56;;;;;;;21.50;15.30;;;;;;;6.54;94.36;100107.09;5111501;28;20969;-77
2022/02/21 00:56:21;;;;;;;21.52;16.02;;;;;;;6.59;94.46;100115.59;5110933;28;20062;-77
2022/02/21 00:58:47;;;;;;;21.63;16.13;;;;;;;6.54;94.31;100123.06;5110418;28;20016;-77
2022/02/21 01:01:12;;;;;;;24.58;17.23;;;;;;;6.54;94.76;100123.06;5112106;28;20020;-77
2022/02/21 01:03:38;;;;;;;22.30;16.05;;;;;;;6.51;94.78;100117.97;5110844;28;20131;-77
2022/02/21 01:06:04;;;;;;;24.02;16.23;;;;;;;6.44;94.93;100099.88;5112181;28;20023;-77
2022/02/21 01:08:29;;;;;;;23.77;16.67;;;;;;;6.34;95.09;100102.41;5112078;28;20402;-76
2022/02/21 01:10:55;;;;;;;20.77;15.93;;;;;;;6.37;95.16;100093.31;5111601;28;20032;-78
2022/02/21 01:13:21;;;;;;;23.25;16.80;;;;;;;6.31;94.93;100088.44;5112077;28;20486;-77
2022/02/21 01:15:46;;;;;;;23.13;16.35;;;;;;;6.22;94.78;100067.81;5111659;28;20028;-77
2022/02/21 01:18:12;;;;;;;25.70;17.20;;;;;;;6.18;94.92;100059.22;5112386;28;20417;-77
2022/02/21 01:20:38;;;;;;;25.55;17.48;;;;;;;6.22;95.26;100063.34;5112453;28;20023;-77
2022/02/21 01:23:03;;;;;;;25.33;18.65;;;;;;;6.10;95.75;100050.09;5110215;28;20055;-77
2022/02/21 01:25:29;;;;;;;26.77;19.20;;;;;;;6.15;95.51;100051.47;5110909;28;20027;-77
2022/02/21 01:27:54;;;;;;;24.75;17.85;;;;;;;6.09;96.41;100048.38;5110922;28;20076;-77
2022/02/21 01:30:20;;;;;;;26.92;19.25;;;;;;;5.96;96.64;100026.28;5110403;28;20034;-68
2022/02/21 01:32:45;;;;;;;28.10;19.90;;;;;;;5.94;97.44;100037.06;5108763;28;20042;-68
2022/02/21 01:35:11;;;;;;;27.33;19.38;;;;;;;5.85;97.01;100027.09;5108371;28;20084;-69
2022/02/21 01:37:37;;;;;;;27.33;19.88;;;;;;;5.86;97.93;100028.78;5109146;28;20040;-69
2022/02/21 01:40:09;;;;;;;29.67;19.40;;;;;;;5.80;98.29;100023.88;5106150;28;20023;-69
2022/02/21 01:42:36;;;;;;;31.30;20.95;;;;;;;5.77;98.21;100015.28;5110073;28;20382;-67
2022/02/21 01:45:03;;;;;;;28.50;20.55;;;;;;;5.80;97.91;100009.75;5111968;28;20044;-68
2022/02/21 01:47:28;;;;;;;30.88;20.77;;;;;;;5.71;98.15;99983.81;5112683;28;20561;-68
2022/02/21 01:49:54;;;;;;;32.08;21.17;;;;;;;5.71;99.06;99986.47;5112237;28;20024;-68
2022/02/21 01:52:19;;;;;;;30.88;21.33;;;;;;;5.61;99.03;99977.47;5112324;28;20027;-68
2022/02/21 01:54:45;;;;;;;31.75;20.77;;;;;;;5.71;98.70;99978.50;5112542;28;20023;-68
2022/02/21 01:57:11;;;;;;;30.63;21.15;;;;;;;5.62;98.89;99966.72;5111948;28;20028;-68
2022/02/21 01:59:38;;;;;;;32.53;21.38;;;;;;;5.65;99.08;99982.47;5112591;28;20020;-68
2022/02/21 02:02:05;;;;;;;31.73;21.15;;;;;;;5.59;99.25;99971.41;5109653;28;20027;-68
2022/02/21 02:04:31;;;;;;;33.00;21.48;;;;;;;5.50;99.63;99972.91;5112159;28;20122;-69
2022/02/21 02:06:58;;;;;;;30.90;22.33;;;;;;;5.53;99.85;99966.53;5111742;28;20103;-68
2022/02/21 02:09:23;;;;;;;29.33;20.40;;;;;;;5.47;100.00;99937.72;5111933;28;20039;-69
2022/02/21 02:11:51;;;;;;;31.35;21.95;;;;;;;5.37;100.00;99937.53;5111622;28;20088;-68
2022/02/21 02:14:33;;;;;;;30.83;20.65;;;;;;;5.46;100.00;99944.84;5111321;28;20038;-68
2022/02/21 02:17:05;;;;;;;29.58;21.48;;;;;;;5.34;100.00;99935.09;5110427;28;20035;-68
2022/02/21 02:19:31;;;;;;;31.23;20.90;;;;;;;5.44;100.00;99946.78;5111642;28;20106;-68
2022/02/21 02:21:59;;;;;;;31.48;20.15;;;;;;;5.41;100.00;99933.69;5111466;28;20110;-69
2022/02/21 02:24:25;;;;;;;30.10;20.30;;;;;;;5.43;100.00;99937.09;5110251;28;20115;-69
2022/02/21 02:26:54;;;;;;;33.40;21.80;;;;;;;5.41;100.00;99941.66;5110390;28;20031;-69
2022/02/21 02:29:22;;;;;;;33.58;22.45;;;;;;;5.32;100.00;99931.69;5110585;28;20039;-69
2022/02/21 02:31:48;;;;;;;28.42;20.08;;;;;;;5.37;100.00;99936.69;5110997;28;20166;-69
2022/02/21 02:34:14;;;;;;;32.13;20.38;;;;;;;5.38;100.00;99936.56;5110774;28;20036;-76
2022/02/21 02:36:39;;;;;;;31.52;20.70;;;;;;;5.41;100.00;99931.03;5111821;28;20429;-76
2022/02/21 02:39:05;;;;;;;35.88;21.33;;;;;;;5.39;100.00;99922.34;5112454;28;20118;-76
2022/02/21 02:41:30;;;;;;;36.30;21.45;;;;;;;5.30;100.00;99907.06;5112289;28;21268;-76
2022/02/21 02:43:56;;;;;;;31.88;21.20;;;;;;;5.29;100.00;99910.66;5112503;28;20539;-76
2022/02/21 02:46:21;;;;;;;31.50;21.25;;;;;;;5.34;100.00;99920.94;5112189;28;20039;-77
2022/02/21 02:48:46;;;;;;;28.38;19.95;;;;;;;5.34;100.00;99920.94;5112298;28;20514;-76
2022/02/21 02:51:12;;;;;;;32.03;21.52;;;;;;;5.39;100.00;99916.16;5112498;28;20027;-76
2022/02/21 02:53:37;;;;;;;33.70;21.73;;;;;;;5.32;100.00;99910.44;5111608;28;20398;-76
2022/02/21 02:56:03;;;;;;;33.45;22.33;;;;;;;5.38;100.00;99925.09;5112279;28;20501;-76
2022/02/21 02:58:28;;;;;;;37.35;22.85;;;;;;;5.34;100.00;99915.63;5111586;28;20612;-69
2022/02/21 03:00:54;;;;;;;40.05;24.42;;;;;;;5.35;100.00;99904.06;5110388;28;20030;-68
2022/02/21 03:03:20;;;;;;;38.58;25.45;;;;;;;5.41;100.00;99919.53;5109274;28;20403;-68
2022/02/21 03:05:45;;;;;;;42.08;26.02;;;;;;;5.36;100.00;99900.44;5108960;28;20498;-68
2022/02/21 03:08:11;;;;;;;50.67;28.33;;;;;;;5.32;100.00;99902.44;5110788;28;20120;-69
2022/02/21 03:10:36;;;;;;;50.10;28.30;;;;;;;5.34;100.00;99902.34;5110186;28;20036;-68
2022/02/21 03:13:02;;;;;;;53.50;30.08;;;;;;;5.50;100.00;99910.91;5110103;28;20031;-68
2022/02/21 03:15:27;;;;;;;54.83;29.63;;;;;;;5.44;100.00;99904.22;5110467;28;20019;-68
2022/02/21 03:17:53;;;;;;;55.45;29.90;;;;;;;5.39;100.00;99894.88;5110144;28;20032;-68
2022/02/21 03:20:19;;;;;;;56.13;29.92;;;;;;;5.46;100.00;99898.78;5110688;28;20041;-68
2022/02/21 03:22:44;;;;;;;58.72;30.92;;;;;;;5.42;100.00;99903.47;5108621;28;20031;-69
2022/02/21 03:25:13;;;;;;;64.88;32.78;;;;;;;5.47;100.00;99913.78;5110301;28;20552;-68
2022/02/21 03:27:43;;;;;;;61.08;32.60;;;;;;;5.48;100.00;99905.69;5108766;28;20059;-68
2022/02/21 03:30:10;;;;;;;61.05;32.95;;;;;;;5.48;100.00;99905.69;5109077;28;20038;-69
2022/02/21 03:32:36;;;;;;;60.33;33.40;;;;;;;5.54;100.00;99905.25;5109965;28;20019;-69
2022/02/21 03:35:02;;;;;;;64.60;34.30;;;;;;;5.52;100.00;99893.88;5109836;28;20036;-68
2022/02/21 03:37:27;;;;;;;58.85;32.25;;;;;;;5.56;100.00;99892.69;5108474;28;20020;-68
2022/02/21 03:39:53;;;;;;;71.75;33.47;;;;;;;5.53;100.00;99879.63;5110051;27;20057;-76
2022/02/21 03:42:18;;;;;;;59.97;32.78;;;;;;;5.52;100.00;99883.25;5111417;28;20031;-76
2022/02/21 03:44:43;;;;;;;62.30;33.13;;;;;;;5.57;100.00;99890.84;5111215;28;20054;-76
2022/02/21 03:47:09;;;;;;;62.83;33.55;;;;;;;5.59;100.00;99878.31;5111246;28;20032;-76
2022/02/21 03:49:34;;;;;;;65.80;33.72;;;;;;;5.62;100.00;99881.59;5111230;28;20024;-77
2022/02/21 03:52:00;;;;;;;63.55;32.75;;;;;;;5.64;100.00;99878.81;5111046;28;20023;-76
2022/02/21 03:54:26;;;;;;;64.88;33.03;;;;;;;5.74;100.00;99867.34;5111066;28;20031;-76
2022/02/21 03:56:51;;;;;;;66.40;34.95;;;;;;;5.67;100.00;99852.81;5108586;28;20080;-76
2022/02/21 03:59:16;;;;;;;62.05;32.13;;;;;;;5.67;100.00;99855.47;5111170;28;20269;-76
2022/02/21 04:01:42;;;;;;;56.50;32.55;;;;;;;5.69;100.00;99834.09;5109955;28;20023;-77
2022/02/21 04:04:07;;;;;;;64.90;33.95;;;;;;;5.70;100.00;99830.44;5110560;28;20047;-76
2022/02/21 04:06:33;;;;;;;60.00;31.80;;;;;;;5.66;100.00;99805.91;5110202;28;20027;-76
2022/02/21 04:08:58;;;;;;;63.40;33.35;;;;;;;5.73;100.00;99800.97;5110662;28;20475;-76
2022/02/21 04:11:24;;;;;;;64.22;34.83;;;;;;;5.70;100.00;99791.41;5110374;28;20031;-69
2022/02/21 04:13:49;;;;;;;59.58;33.40;;;;;;;5.71;100.00;99801.06;5109292;28;20024;-69
2022/02/21 04:16:15;;;;;;;60.28;32.63;;;;;;;5.70;100.00;99783.44;5109008;28;20027;-69
2022/02/21 04:18:40;;;;;;;63.72;32.22;;;;;;;5.71;100.00;99784.28;5109397;28;20043;-68
2022/02/21 04:21:06;;;;;;;59.75;32.30;;;;;;;5.73;100.00;99787.66;5109236;28;20035;-68
2022/02/21 04:23:31;;;;;;;58.08;32.08;;;;;;;5.72;100.00;99781.50;5108740;28;20039;-68
2022/02/21 04:25:56;;;;;;;63.63;31.63;;;;;;;5.71;100.00;99777.13;5108701;28;20038;-69
2022/02/21 04:28:22;;;;;;;63.33;33.08;;;;;;;5.78;100.00;99772.22;5108928;28;20036;-68
2022/02/21 04:30:48;;;;;;;60.17;33.28;;;;;;;5.79;100.00;99761.44;5108860;28;20036;-69
2022/02/21 04:33:13;;;;;;;66.38;33.30;;;;;;;5.70;100.00;99740.88;5108157;28;20027;-69
2022/02/21 04:35:39;;;;;;;60.67;30.55;;;;;;;5.84;100.00;99743.34;5108985;28;20047;-68
2022/02/21 04:38:04;;;;;;;57.90;29.48;;;;;;;5.78;100.00;99726.97;5108720;28;20027;-68
2022/02/21 04:40:30;;;;;;;57.28;29.73;;;;;;;5.82;100.00;99713.34;5106408;28;20028;-68
2022/02/21 04:42:57;;;;;;;55.85;28.52;;;;;;;5.97;100.00;99712.13;5108880;28;20473;-69
2022/02/21 04:45:24;;;;;;;62.25;30.27;;;;;;;5.92;100.00;99686.84;5108657;28;20050;-68
2022/02/21 04:47:51;;;;;;;58.10;30.20;;;;;;;5.96;100.00;99694.47;5108452;28;20040;-68
2022/02/21 04:50:17;;;;;;;56.83;30.63;;;;;;;5.85;100.00;99680.34;5108825;28;20032;-68
2022/02/21 04:52:42;;;;;;;53.28;30.30;;;;;;;5.92;100.00;99678.88;5109124;28;20039;-68
2022/02/21 04:55:10;;;;;;;53.33;29.10;;;;;;;5.94;100.00;99682.28;5108491;28;20028;-69
2022/02/21 04:57:36;;;;;;;59.63;30.40;;;;;;;5.89;100.00;99685.28;5108372;28;20054;-68
2022/02/21 05:00:07;;;;;;;59.08;30.55;;;;;;;5.97;100.00;99679.38;5107229;28;20434;-68
2022/02/21 05:02:32;;;;;;;56.92;30.20;;;;;;;5.96;100.00;99683.84;5108859;28;20031;-68
2022/02/21 05:04:58;;;;;;;59.03;30.27;;;;;;;5.98;100.00;99679.25;5109439;28;20038;-77
2022/02/21 05:07:23;;;;;;;55.92;29.08;;;;;;;5.88;100.00;99657.00;5110153;28;20031;-76
2022/02/21 05:09:49;;;;;;;50.40;28.50;;;;;;;5.89;100.00;99666.66;5110147;28;20023;-77
2022/02/21 05:12:14;;;;;;;53.38;30.13;;;;;;;5.97;100.00;99680.19;5110097;28;20402;-76
2022/02/21 05:14:40;;;;;;;54.47;31.50;;;;;;;5.93;100.00;99665.44;5108580;28;20023;-77
2022/02/21 05:17:06;;;;;;;51.13;28.77;;;;;;;5.95;100.00;99657.34;5111629;28;20524;-77
2022/02/21 05:19:32;;;;;;;55.17;30.40;;;;;;;5.98;100.00;99655.31;5112209;28;20091;-76
2022/02/21 05:21:58;;;;;;;50.97;27.92;;;;;;;5.97;100.00;99642.13;5113722;28;20027;-77
2022/02/21 05:24:23;;;;;;;50.95;29.08;;;;;;;5.89;100.00;99612.59;5114036;28;20035;-76
2022/02/21 05:26:49;;;;;;;54.30;29.33;;;;;;;5.95;100.00;99623.59;5113531;28;20031;-77
2022/02/21 05:29:15;;;;;;;52.00;29.48;;;;;;;5.94;100.00;99618.41;5113641;27;20038;-77
2022/02/21 05:31:41;;;;;;;53.35;28.92;;;;;;;5.95;100.00;99618.28;5113830;28;20030;-78
2022/02/21 05:34:07;;;;;;;53.30;28.50;;;;;;;5.94;100.00;99616.56;5112013;28;20084;-77
2022/02/21 05:36:32;;;;;;;53.60;28.55;;;;;;;5.95;100.00;99617.44;5113654;28;20364;-77
2022/02/21 05:38:58;;;;;;;56.63;29.60;;;;;;;5.84;100.00;99618.28;5113698;28;20476;-78
2022/02/21 05:41:23;;;;;;;54.67;27.60;;;;;;;5.88;100.00;99626.88;5114112;28;20031;-77
2022/02/21 05:43:48;;;;;;;51.55;28.95;;;;;;;5.88;100.00;99638.38;5113397;28;20034;-77
2022/02/21 05:46:14;;;;;;;52.45;28.25;;;;;;;5.92;100.00;99642.47;5112396;28;20550;-77
2022/02/21 05:48:39;;;;;;;53.90;28.05;;;;;;;5.90;100.00;99631.09;5111741;28;20441;-77
2022/02/21 05:51:05;;;;;;;51.47;29.00;;;;;;;5.87;100.00;99635.84;5113318;28;20123;-78
2022/02/21 05:53:30;;;;;;;50.47;28.48;;;;;;;5.79;100.00;99633.75;5113319;28;20451;-77
2022/02/21 05:55:56;;;;;;;51.22;28.98;;;;;;;5.83;100.00;99626.38;5113313;28;20471;-79
2022/02/21 05:58:21;;;;;;;50.25;29.23;;;;;;;5.84;100.00;99644.88;5113204;28;20031;-78
2022/02/21 06:00:49;;;;;;;50.15;28.90;;;;;;;5.83;100.00;99634.34;5113427;28;20028;-78
2022/02/21 06:03:15;;;;;;;51.30;28.60;;;;;;;5.89;100.00;99631.22;5113501;28;20054;-74
2022/02/21 06:05:43;;;;;;;51.00;28.42;;;;;;;5.87;100.00;99638.50;5112441;28;20031;-74
2022/02/21 06:08:08;;;;;;;47.95;29.70;;;;;;;5.89;100.00;99636.53;5112794;28;20057;-77
2022/02/21 06:10:34;;;;;;;51.03;28.45;;;;;;;5.91;100.00;99637.28;5113152;28;20035;-78
2022/02/21 06:12:59;;;;;;;52.67;30.30;;;;;;;5.92;100.00;99618.53;5113159;27;20016;-77
2022/02/21 06:15:25;;;;;;;50.25;28.63;;;;;;;5.94;100.00;99619.22;5113008;28;20467;-77
2022/02/21 06:17:50;;;;;;;54.22;30.20;;;;;;;5.93;100.00;99614.06;5113056;28;20034;-77
2022/02/21 06:20:15;;;;;;;55.53;30.10;;;;;;;5.98;100.00;99619.84;5113697;28;20032;-77
2022/02/21 06:22:41;;;;;;;52.33;29.73;;;;;;;6.03;100.00;99604.38;5112945;28;20020;-77
2022/02/21 06:25:07;;;;;;;53.70;29.48;;;;;;;6.00;100.00;99584.16;5113035;28;20019;-77
2022/02/21 06:27:33;;;;;;;53.33;29.13;;;;;;;6.04;100.00;99600.72;5112189;28;20402;-77
2022/02/21 06:29:58;;;;;;;53.83;29.00;;;;;;;6.01;100.00;99595.66;5112257;28;20028;-77
2022/02/21 06:32:24;;;;;;;49.97;29.30;;;;;;;5.98;100.00;99612.72;5111332;28;20031;-76
2022/02/21 06:34:51;;;;;;;56.53;30.60;;;;;;;6.00;100.00;99594.78;5111259;28;20023;-76
2022/02/21 06:37:17;;;;;;;55.55;29.83;;;;;;;6.05;100.00;99597.94;5112528;28;20027;-78
2022/02/21 06:39:43;;;;;;;58.95;29.48;;;;;;;6.01;100.00;99596.50;5111070;28;20156;-77
2022/02/21 06:42:08;;;;;;;61.60;31.70;;;;;;;6.10;100.00;99613.53;5112549;28;20035;-77
2022/02/21 06:44:34;;;;;;;56.13;31.15;;;;;;;6.12;100.00;99616.91;5112654;28;20107;-77
2022/02/21 06:46:59;;;;;;;56.80;30.50;;;;;;;6.03;100.00;99593.72;5112671;28;20074;-77
2022/02/21 06:49:24;;;;;;;60.00;30.60;;;;;;;6.04;100.00;99598.06;5112770;28;20028;-77
2022/02/21 06:51:50;;;;;;;55.35;30.73;;;;;;;6.02;100.00;99586.69;5113538;28;20049;-77
2022/02/21 06:54:17;;;;;;;52.72;29.30;;;;;;;6.15;100.00;99598.03;5113399;28;20046;-77
2022/02/21 06:56:43;;;;;;;52.15;30.02;;;;;;;6.19;100.00;99597.66;5113079;28;20114;-77
2022/02/21 06:59:08;;;;;;;55.00;30.60;;;;;;;6.17;100.00;99582.78;5112617;28;20543;-77
2022/02/21 07:01:34;;;;;;;53.53;29.98;;;;;;;6.19;100.00;99584.34;5112860;28;20524;-77
2022/02/21 07:03:59;;;;;;;54.42;29.10;;;;;;;6.17;100.00;99578.31;5112602;28;20019;-78
2022/02/21 07:06:25;;;;;;;56.33;29.25;;;;;;;6.23;100.00;99587.63;5112208;28;20047;-77
2022/02/21 07:08:50;;;;;;;51.72;28.50;;;;;;;6.20;100.00;99575.41;5111366;28;20023;-77
2022/02/21 07:11:16;;;;;;;57.40;30.15;;;;;;;6.18;100.00;99572.03;5111554;28;20034;-77
2022/02/21 07:13:41;;;;;;;54.10;29.02;;;;;;;6.17;100.00;99565.00;5112584;28;20412;-77
2022/02/21 07:16:07;;;;;;;55.33;28.83;;;;;;;6.26;100.00;99572.22;5112218;28;20160;-77
2022/02/21 07:18:37;;;;;;;55.45;28.73;;;;;;;6.30;100.00;99568.34;5112354;28;20057;-77
2022/02/21 07:21:02;;;;;;;55.22;27.38;;;;;;;6.29;100.00;99558.66;5112592;28;20032;-77
2022/02/21 07:23:29;;;;;;;54.63;28.48;;;;;;;6.34;100.00;99560.94;5112198;28;20360;-78
2022/02/21 07:25:54;;;;;;;57.47;28.50;;;;;;;6.42;100.00;99554.00;5111908;28;20455;-78
2022/02/21 07:28:20;;;;;;;52.88;28.48;;;;;;;6.51;100.00;99553.25;5110208;28;20047;-77
2022/02/21 07:30:45;;;;;;;56.85;29.38;;;;;;;6.54;100.00;99552.16;5112203;28;20031;-78
2022/02/21 07:33:11;;;;;;;57.72;27.50;;;;;;;6.53;100.00;99535.34;5110717;28;20031;-78
2022/02/21 07:35:36;;;;;;;49.22;26.65;;;;;;;6.67;100.00;99543.00;5112177;28;20035;-78
2022/02/21 07:38:02;;;;;;;50.03;27.02;;;;;;;6.71;100.00;99538.28;5107827;28;20237;-78
2022/02/21 07:40:27;;;;;;;48.92;26.90;;;;;;;6.74;100.00;99538.03;5107154;28;20038;-78
2022/02/21 07:42:54;;;;;;;49.88;26.40;;;;;;;6.87;100.00;99539.50;5111653;28;20031;-78
2022/02/21 07:45:21;;;;;;;52.60;28.10;;;;;;;6.97;100.00;99532.41;5111239;28;20032;-77
2022/02/21 07:47:57;;;;;;;51.65;27.73;;;;;;;7.10;100.00;99536.69;5111281;28;20118;-77
2022/02/21 07:50:24;;;;;;;58.15;28.00;;;;;;;7.22;99.91;99531.13;5111468;28;20039;-77
2022/02/21 07:52:51;;;;;;;56.08;28.08;;;;;;;7.33;98.98;99523.06;5111688;28;20098;-78
2022/02/21 07:55:17;;;;;;;50.63;26.67;;;;;;;7.50;97.52;99519.75;5111080;28;20031;-78
2022/02/21 07:57:44;;;;;;;54.63;27.85;;;;;;;7.69;97.13;99506.47;5111514;28;20469;-78
2022/02/21 08:00:11;;;;;;;52.20;28.13;;;;;;;7.81;96.59;99501.88;5111905;28;20034;-78
2022/02/21 08:02:37;;;;;;;54.80;28.10;;;;;;;7.92;95.06;99491.91;5110748;28;20475;-77
2022/02/21 08:05:05;;;;;;;54.47;27.42;;;;;;;7.96;93.16;99476.47;5112120;28;20035;-78
2022/02/21 08:07:31;;;;;;;48.25;26.77;;;;;;;8.18;92.95;99474.38;5111561;28;20134;-78
2022/02/21 08:09:56;;;;;;;48.38;27.15;;;;;;;8.71;91.82;99477.47;5111092;28;20732;-78
2022/02/21 08:12:22;;;;;;;50.95;27.52;;;;;;;8.97;87.18;99465.16;5111418;28;20141;-78
2022/02/21 08:14:47;;;;;;;48.95;26.92;;;;;;;9.15;85.15;99463.41;5108610;28;20039;-78
2022/02/21 08:17:13;;;;;;;42.17;25.38;;;;;;;9.18;83.52;99455.94;5109566;28;20031;-78
2022/02/21 08:19:38;;;;;;;48.33;26.55;;;;;;;9.25;83.14;99454.34;5112984;28;20031;-78
2022/02/21 08:22:04;;;;;;;47.55;25.15;;;;;;;9.22;82.40;99432.38;5111946;28;20479;-78
2022/02/21 08:24:30;;;;;;;44.88;25.23;;;;;;;9.32;82.61;99450.09;5111002;28;20022;-78
2022/02/21 08:26:55;;;;;;;43.70;24.70;;;;;;;9.32;82.23;99431.34;5111341;28;20031;-69
2022/02/21 08:29:21;;;;;;;45.15;24.38;;;;;;;9.29;82.47;99431.66;5108599;28;20028;-69
2022/02/21 08:31:48;;;;;;;42.80;24.88;;;;;;;9.35;82.05;99440.91;5107787;28;20059;-69
2022/02/21 08:34:16;;;;;;;45.33;25.05;;;;;;;9.26;80.61;99415.06;5108333;28;20062;-69
2022/02/21 08:36:42;;;;;;;41.47;23.65;;;;;;;9.19;80.67;99405.94;5108364;28;20023;-69
2022/02/21 08:39:08;;;;;;;46.20;24.23;;;;;;;9.21;81.13;99420.00;5108379;28;20040;-69
2022/02/21 08:41:34;;;;;;;43.85;23.70;;;;;;;9.15;80.61;99404.53;5096411;28;20087;-70
2022/02/21 08:43:59;;;;;;;46.65;24.73;;;;;;;9.07;81.07;99401.78;5108484;28;20023;-69
2022/02/21 08:46:25;;;;;;;46.72;25.00;;;;;;;9.09;80.95;99411.34;5108426;28;20088;-70
2022/02/21 08:48:51;;;;;;;45.75;25.08;;;;;;;9.03;81.75;99398.53;5108175;28;20161;-70
2022/02/21 08:51:16;;;;;;;46.08;24.13;;;;;;;8.99;82.24;99397.16;5107592;28;20057;-69
2022/02/21 08:53:41;;;;;;;48.85;24.65;;;;;;;8.98;83.00;99386.63;5108502;28;20038;-69
2022/02/21 08:56:07;;;;;;;43.75;23.30;;;;;;;9.04;82.78;99399.41;5107896;28;20387;-78
2022/02/21 08:58:34;;;;;;;43.70;24.38;;;;;;;8.98;83.20;99386.63;5109349;28;20388;-69
2022/02/21 09:01:00;;;;;;;45.08;24.85;;;;;;;8.98;83.35;99392.81;5108114;28;20030;-70
2022/02/21 09:03:26;;;;;;;43.28;22.35;;;;;;;9.05;81.99;99395.72;5108432;28;20411;-70
2022/02/21 09:05:53;;;;;;;40.38;22.90;;;;;;;9.05;82.60;99383.22;5108682;28;20020;-70
2022/02/21 09:08:19;;;;;;;47.05;23.77;;;;;;;9.19;82.09;99414.81;5108344;28;20061;-70
2022/02/21 09:10:45;;;;;;;39.65;22.70;;;;;;;9.27;81.83;99419.41;5107959;28;20024;-70
2022/02/21 09:13:11;;;;;;;45.10;22.73;;;;;;;9.27;81.46;99396.19;5109487;28;20118;-78
2022/02/21 09:15:36;;;;;;;45.13;23.20;;;;;;;9.35;80.66;99390.06;5114845;28;20031;-78
2022/02/21 09:18:04;;;;;;;42.65;23.52;;;;;;;9.44;80.88;99402.56;5112989;28;20479;-79
2022/02/21 09:20:30;;;;;;;44.47;23.75;;;;;;;9.48;80.70;99390.56;5112819;28;20502;-78
2022/02/21 09:22:56;;;;;;;47.78;24.35;;;;;;;9.56;80.28;99398.69;5111163;28;20483;-78
2022/02/21 09:25:21;;;;;;;41.20;23.80;;;;;;;9.58;79.41;99380.66;5111130;28;20112;-78
2022/02/21 09:27:47;;;;;;;40.05;23.20;;;;;;;9.67;79.78;99379.72;5111435;28;20028;-78
2022/02/21 09:30:13;;;;;;;42.08;23.70;;;;;;;9.73;79.24;99376.44;5112253;28;20027;-78
2022/02/21 09:32:38;;;;;;;43.55;24.23;;;;;;;9.82;78.59;99385.41;5110817;28;20118;-78
2022/02/21 09:35:05;;;;;;;40.42;23.58;;;;;;;9.87;78.95;99389.28;5113591;28;20029;-78
2022/02/21 09:37:30;;;;;;;44.63;23.88;;;;;;;9.87;78.38;99385.78;5115469;28;20097;-78
2022/02/21 09:39:56;;;;;;;49.50;25.27;;;;;;;9.88;77.67;99379.44;5110579;28;20020;-78
2022/02/21 09:42:22;;;;;;;42.63;23.63;;;;;;;9.93;76.87;99387.88;5111273;28;20032;-78
2022/02/21 09:44:48;;;;;;;43.80;25.10;;;;;;;9.97;76.39;99394.59;5110863;28;20028;-72
2022/02/21 09:47:17;;;;;;;43.97;24.60;;;;;;;9.88;76.26;99384.78;5110803;28;20515;-76
2022/02/21 09:49:43;;;;;;;46.75;25.05;;;;;;;9.89;75.81;99376.59;5106164;28;20035;-75
2022/02/21 09:52:09;;;;;;;47.40;25.77;;;;;;;9.97;75.67;99375.84;5110337;28;20027;-76
2022/02/21 09:54:35;;;;;;;45.08;24.88;;;;;;;9.92;75.81;99362.91;5109255;28;20031;-75
2022/02/21 09:57:01;;;;;;;48.28;26.45;;;;;;;10.07;75.01;99373.97;5109393;28;20399;-75
2022/02/21 09:59:26;;;;;;;46.45;25.05;;;;;;;9.98;75.85;99361.44;5109320;28;20024;-76
2022/02/21 10:01:52;;;;;;;46.22;24.90;;;;;;;10.06;74.45;99380.28;5109428;28;20023;-76
2022/02/21 10:04:25;;;;;;;50.75;25.92;;;;;;;10.00;75.05;99383.56;5111369;28;20483;-76
2022/02/21 10:06:51;;;;;;;49.15;25.77;;;;;;;9.91;75.46;99374.63;5112798;28;20073;-76
2022/02/21 10:09:17;;;;;;;47.20;26.20;;;;;;;9.87;75.13;99369.72;5112505;28;20042;-77
2022/02/21 10:11:48;;;;;;;46.10;23.77;;;;;;;9.86;75.36;99368.88;5112511;28;20545;-76
2022/02/21 10:14:14;;;;;;;49.20;26.13;;;;;;;9.89;75.53;99375.75;5110465;28;20072;-76
2022/02/21 10:16:46;;;;;;;44.40;23.98;;;;;;;9.85;75.60;99371.72;5112327;28;20114;-76
2022/02/21 10:19:12;;;;;;;48.25;25.20;;;;;;;9.81;75.89;99373.88;5112360;28;20387;-77
2022/02/21 10:22:22;;;;;;;47.88;25.15;;;;;;;9.80;75.95;99357.94;5112233;28;20102;-76
2022/02/21 10:24:49;;;;;;;44.28;24.52;;;;;;;9.77;75.74;99364.44;5108825;28;20081;-77
2022/02/21 10:27:27;;;;;;;47.28;25.70;;;;;;;9.76;76.20;99361.91;5111088;28;20040;-76
2022/02/21 10:29:55;;;;;;;49.85;25.27;;;;;;;9.76;76.18;99357.41;5111980;28;20054;-77
2022/02/21 10:32:29;;;;;;;44.08;24.65;;;;;;;9.76;76.42;99359.22;5110644;28;20039;-77
2022/02/21 10:34:56;;;;;;;54.05;24.35;;;;;;;9.75;76.36;99350.38;5112116;28;20072;-78
2022/02/21 10:37:25;;;;;;;47.58;25.65;;;;;;;9.74;76.42;99346.00;5110765;28;20027;-77
2022/02/21 10:40:05;;;;;;;44.90;25.33;;;;;;;9.81;75.79;99339.06;5109801;28;20024;-77
2022/02/21 10:42:32;;;;;;;47.55;25.02;;;;;;;9.80;75.95;99334.66;5110921;28;20434;-77
2022/02/21 10:45:17;;;;;;;43.97;24.05;;;;;;;9.80;75.46;99333.84;5111797;28;20375;-77
2022/02/21 10:48:06;;;;;;;47.45;24.63;;;;;;;9.87;74.80;99334.91;5111653;28;20128;-77
2022/02/21 10:50:35;;;;;;;46.05;24.40;;;;;;;9.89;74.76;99330.22;5111833;28;20479;-76
2022/02/21 10:53:11;;;;;;;43.53;23.10;;;;;;;9.88;75.16;99318.69;5112612;28;20024;-77
2022/02/21 10:55:37;;;;;;;41.00;23.65;;;;;;;9.91;74.70;99312.19;5111948;28;20449;-77
2022/02/21 10:58:32;;;;;;;50.58;25.17;;;;;;;9.96;74.56;99318.75;5112146;28;20141;-77
2022/02/21 11:00:58;;;;;;;46.83;22.85;;;;;;;9.94;74.74;99302.00;5102365;28;20046;-77
2022/02/21 11:03:26;;;;;;;45.17;22.85;;;;;;;9.97;74.82;99301.69;5111438;28;20031;-70
2022/02/21 11:05:55;;;;;;;45.15;22.67;;;;;;;10.05;74.04;99298.22;5110105;28;20024;-69
2022/02/21 11:08:21;;;;;;;45.30;22.90;;;;;;;10.10;73.90;99301.31;5109917;28;20027;-69
2022/02/21 11:10:57;;;;;;;44.88;23.70;;;;;;;10.16;73.75;99301.50;5109843;28;20019;-69
2022/02/21 11:13:22;;;;;;;41.40;21.70;;;;;;;10.19;73.02;99285.13;5110017;28;20523;-69
2022/02/21 11:15:48;;;;;;;38.10;20.75;;;;;;;10.23;72.22;99266.91;5109843;28;20091;-69